sensor_id;sensor_type;location;lat;lon;timestamp;P1;durP1;ratioP1;P2;durP2;ratioP2
49051;SDS011;34866;48.670;18.260;2023-02-23T00:01:47;28.02;;;12.20;;
49051;SDS011;34866;48.670;18.260;2023-02-23T00:04:13;24.75;;;12.10;;
49051;SDS011;34866;48.670;18.260;2023-02-23T00:06:39;22.63;;;9.55;;
49051;SDS011;34866;48.670;18.260;2023-02-23T00:09:05;25.35;;;10.98;;
49051;SDS011;34866;48.670;18.260;2023-02-23T00:11:36;23.70;;;10.77;;
49051;SDS011;34866;48.670;18.260;2023-02-23T00:14:03;30.80;;;12.15;;
49051;SDS011;34866;48.670;18.260;2023-02-23T00:16:28;25.38;;;12.82;;
49051;SDS011;34866;48.670;18.260;2023-02-23T00:18:55;27.55;;;11.65;;
49051;SDS011;34866;48.670;18.260;2023-02-23T00:21:28;23.13;;;10.88;;
49051;SDS011;34866;48.670;18.260;2023-02-23T00:26:30;20.67;;;10.20;;
49051;SDS011;34866;48.670;18.260;2023-02-23T00:28:59;32.58;;;11.30;;
49051;SDS011;34866;48.670;18.260;2023-02-23T00:31:26;38.80;;;13.57;;
49051;SDS011;34866;48.670;18.260;2023-02-23T00:33:52;24.42;;;11.43;;
49051;SDS011;34866;48.670;18.260;2023-02-23T00:36:20;25.92;;;11.70;;
49051;SDS011;34866;48.670;18.260;2023-02-23T00:38:51;21.52;;;11.68;;
49051;SDS011;34866;48.670;18.260;2023-02-23T00:41:25;26.70;;;11.68;;
49051;SDS011;34866;48.670;18.260;2023-02-23T00:43:58;28.10;;;11.68;;
49051;SDS011;34866;48.670;18.260;2023-02-23T00:46:25;24.52;;;11.75;;
49051;SDS011;34866;48.670;18.260;2023-02-23T00:48:53;25.33;;;11.85;;
49051;SDS011;34866;48.670;18.260;2023-02-23T00:51:20;28.45;;;11.55;;
49051;SDS011;34866;48.670;18.260;2023-02-23T00:53:47;23.98;;;10.27;;
49051;SDS011;34866;48.670;18.260;2023-02-23T00:56:14;20.88;;;9.10;;
49051;SDS011;34866;48.670;18.260;2023-02-23T00:58:40;23.13;;;9.05;;
49051;SDS011;34866;48.670;18.260;2023-02-23T01:01:07;24.83;;;10.93;;
49051;SDS011;34866;48.670;18.260;2023-02-23T01:03:34;27.15;;;9.80;;
49051;SDS011;34866;48.670;18.260;2023-02-23T01:06:02;26.98;;;9.80;;
49051;SDS011;34866;48.670;18.260;2023-02-23T01:08:30;21.60;;;10.43;;
49051;SDS011;34866;48.670;18.260;2023-02-23T01:11:08;26.10;;;10.80;;
49051;SDS011;34866;48.670;18.260;2023-02-23T01:13:43;20.60;;;10.13;;
49051;SDS011;34866;48.670;18.260;2023-02-23T01:16:11;24.13;;;10.85;;
49051;SDS011;34866;48.670;18.260;2023-02-23T01:18:39;20.30;;;10.07;;
49051;SDS011;34866;48.670;18.260;2023-02-23T01:21:16;23.17;;;9.95;;
49051;SDS011;34866;48.670;18.260;2023-02-23T01:23:52;22.00;;;9.73;;
49051;SDS011;34866;48.670;18.260;2023-02-23T01:26:19;21.42;;;10.60;;
49051;SDS011;34866;48.670;18.260;2023-02-23T01:28:48;20.88;;;9.27;;
49051;SDS011;34866;48.670;18.260;2023-02-23T01:31:18;18.92;;;9.05;;
49051;SDS011;34866;48.670;18.260;2023-02-23T01:33:45;22.10;;;8.80;;
49051;SDS011;34866;48.670;18.260;2023-02-23T01:36:10;25.50;;;10.43;;
49051;SDS011;34866;48.670;18.260;2023-02-23T01:38:37;22.85;;;8.20;;
49051;SDS011;34866;48.670;18.260;2023-02-23T01:41:03;22.52;;;10.43;;
49051;SDS011;34866;48.670;18.260;2023-02-23T01:43:31;27.27;;;9.77;;
49051;SDS011;34866;48.670;18.260;2023-02-23T01:45:57;18.52;;;8.45;;
49051;SDS011;34866;48.670;18.260;2023-02-23T01:48:24;16.70;;;8.30;;
49051;SDS011;34866;48.670;18.260;2023-02-23T01:51:05;16.63;;;9.00;;
49051;SDS011;34866;48.670;18.260;2023-02-23T01:53:36;25.05;;;9.95;;
49051;SDS011;34866;48.670;18.260;2023-02-23T01:56:09;29.52;;;8.48;;
49051;SDS011;34866;48.670;18.260;2023-02-23T01:58:41;22.70;;;9.02;;
49051;SDS011;34866;48.670;18.260;2023-02-23T02:01:10;22.67;;;8.55;;
49051;SDS011;34866;48.670;18.260;2023-02-23T02:03:50;18.55;;;8.45;;
49051;SDS011;34866;48.670;18.260;2023-02-23T02:06:23;25.10;;;9.15;;
49051;SDS011;34866;48.670;18.260;2023-02-23T02:08:53;22.15;;;8.25;;
49051;SDS011;34866;48.670;18.260;2023-02-23T02:11:21;20.58;;;8.48;;
49051;SDS011;34866;48.670;18.260;2023-02-23T02:13:56;25.38;;;8.38;;
49051;SDS011;34866;48.670;18.260;2023-02-23T02:19:17;18.73;;;8.38;;
49051;SDS011;34866;48.670;18.260;2023-02-23T02:21:49;33.78;;;9.63;;
49051;SDS011;34866;48.670;18.260;2023-02-23T02:33:15;19.23;;;9.07;;
49051;SDS011;34866;48.670;18.260;2023-02-23T02:38:52;14.60;;;6.22;;
49051;SDS011;34866;48.670;18.260;2023-02-23T02:44:37;18.85;;;8.43;;
49051;SDS011;34866;48.670;18.260;2023-02-23T02:47:26;14.43;;;7.78;;
49051;SDS011;34866;48.670;18.260;2023-02-23T02:50:01;13.88;;;6.93;;
49051;SDS011;34866;48.670;18.260;2023-02-23T02:52:40;19.23;;;6.72;;
49051;SDS011;34866;48.670;18.260;2023-02-23T02:55:15;14.40;;;7.68;;
49051;SDS011;34866;48.670;18.260;2023-02-23T02:57:48;15.57;;;6.68;;
49051;SDS011;34866;48.670;18.260;2023-02-23T03:00:27;12.27;;;6.82;;
49051;SDS011;34866;48.670;18.260;2023-02-23T03:06:34;13.80;;;7.22;;
49051;SDS011;34866;48.670;18.260;2023-02-23T03:12:26;10.63;;;6.40;;
49051;SDS011;34866;48.670;18.260;2023-02-23T03:18:42;15.32;;;7.15;;
49051;SDS011;34866;48.670;18.260;2023-02-23T03:21:48;19.10;;;6.95;;
49051;SDS011;34866;48.670;18.260;2023-02-23T03:24:46;15.30;;;7.15;;
49051;SDS011;34866;48.670;18.260;2023-02-23T03:30:33;11.35;;;6.57;;
49051;SDS011;34866;48.670;18.260;2023-02-23T03:33:31;17.15;;;7.85;;
49051;SDS011;34866;48.670;18.260;2023-02-23T03:36:29;12.88;;;5.95;;
49051;SDS011;34866;48.670;18.260;2023-02-23T03:39:25;17.38;;;5.88;;
49051;SDS011;34866;48.670;18.260;2023-02-23T03:42:16;14.15;;;5.85;;
49051;SDS011;34866;48.670;18.260;2023-02-23T03:45:05;8.43;;;5.22;;
49051;SDS011;34866;48.670;18.260;2023-02-23T03:47:52;10.43;;;5.22;;
49051;SDS011;34866;48.670;18.260;2023-02-23T03:50:41;10.40;;;4.82;;
49051;SDS011;34866;48.670;18.260;2023-02-23T03:53:34;11.55;;;5.53;;
49051;SDS011;34866;48.670;18.260;2023-02-23T03:56:42;21.08;;;4.88;;
49051;SDS011;34866;48.670;18.260;2023-02-23T03:59:41;11.00;;;5.65;;
49051;SDS011;34866;48.670;18.260;2023-02-23T04:02:37;15.52;;;7.82;;
49051;SDS011;34866;48.670;18.260;2023-02-23T04:05:23;11.60;;;5.82;;
49051;SDS011;34866;48.670;18.260;2023-02-23T04:08:11;12.80;;;6.05;;
49051;SDS011;34866;48.670;18.260;2023-02-23T04:14:19;9.50;;;5.13;;
49051;SDS011;34866;48.670;18.260;2023-02-23T04:16:53;11.57;;;5.63;;
49051;SDS011;34866;48.670;18.260;2023-02-23T04:19:19;12.40;;;6.07;;
49051;SDS011;34866;48.670;18.260;2023-02-23T04:21:44;15.40;;;7.75;;
49051;SDS011;34866;48.670;18.260;2023-02-23T04:24:10;12.55;;;5.95;;
49051;SDS011;34866;48.670;18.260;2023-02-23T04:26:35;18.63;;;7.10;;
49051;SDS011;34866;48.670;18.260;2023-02-23T04:29:02;18.30;;;8.25;;
49051;SDS011;34866;48.670;18.260;2023-02-23T04:31:27;18.08;;;8.15;;
49051;SDS011;34866;48.670;18.260;2023-02-23T04:33:53;23.55;;;9.02;;
49051;SDS011;34866;48.670;18.260;2023-02-23T04:36:19;28.33;;;10.73;;
49051;SDS011;34866;48.670;18.260;2023-02-23T04:38:44;30.40;;;10.30;;
49051;SDS011;34866;48.670;18.260;2023-02-23T04:41:10;20.63;;;9.65;;
49051;SDS011;34866;48.670;18.260;2023-02-23T04:43:35;19.40;;;10.45;;
49051;SDS011;34866;48.670;18.260;2023-02-23T04:46:01;24.40;;;11.27;;
49051;SDS011;34866;48.670;18.260;2023-02-23T04:48:27;18.92;;;9.15;;
49051;SDS011;34866;48.670;18.260;2023-02-23T04:50:53;18.50;;;7.97;;
49051;SDS011;34866;48.670;18.260;2023-02-23T04:53:19;20.35;;;9.07;;
49051;SDS011;34866;48.670;18.260;2023-02-23T04:55:45;24.98;;;9.13;;
49051;SDS011;34866;48.670;18.260;2023-02-23T04:58:10;22.25;;;10.80;;
49051;SDS011;34866;48.670;18.260;2023-02-23T05:00:38;25.92;;;9.80;;
49051;SDS011;34866;48.670;18.260;2023-02-23T05:03:04;19.63;;;7.88;;
49051;SDS011;34866;48.670;18.260;2023-02-23T05:05:29;18.08;;;7.75;;
49051;SDS011;34866;48.670;18.260;2023-02-23T05:07:55;23.33;;;8.25;;
49051;SDS011;34866;48.670;18.260;2023-02-23T05:10:21;32.22;;;10.77;;
49051;SDS011;34866;48.670;18.260;2023-02-23T05:12:54;17.13;;;9.05;;
49051;SDS011;34866;48.670;18.260;2023-02-23T05:15:20;21.25;;;9.48;;
49051;SDS011;34866;48.670;18.260;2023-02-23T05:17:46;19.27;;;7.72;;
49051;SDS011;34866;48.670;18.260;2023-02-23T05:20:12;18.80;;;8.88;;
49051;SDS011;34866;48.670;18.260;2023-02-23T05:22:38;23.70;;;8.55;;
49051;SDS011;34866;48.670;18.260;2023-02-23T05:25:05;17.38;;;7.75;;
49051;SDS011;34866;48.670;18.260;2023-02-23T05:27:32;14.15;;;7.28;;
49051;SDS011;34866;48.670;18.260;2023-02-23T05:29:58;13.07;;;7.05;;
49051;SDS011;34866;48.670;18.260;2023-02-23T05:32:25;15.25;;;6.43;;
49051;SDS011;34866;48.670;18.260;2023-02-23T05:34:50;18.80;;;8.93;;
49051;SDS011;34866;48.670;18.260;2023-02-23T05:37:16;20.67;;;8.05;;
49051;SDS011;34866;48.670;18.260;2023-02-23T05:39:43;16.40;;;7.53;;
49051;SDS011;34866;48.670;18.260;2023-02-23T05:42:08;12.48;;;6.88;;
49051;SDS011;34866;48.670;18.260;2023-02-23T05:44:34;15.07;;;6.30;;
49051;SDS011;34866;48.670;18.260;2023-02-23T05:47:00;12.27;;;6.22;;
49051;SDS011;34866;48.670;18.260;2023-02-23T05:49:27;14.20;;;6.50;;
49051;SDS011;34866;48.670;18.260;2023-02-23T05:51:54;14.50;;;5.85;;
49051;SDS011;34866;48.670;18.260;2023-02-23T05:54:21;15.60;;;6.68;;
49051;SDS011;34866;48.670;18.260;2023-02-23T05:56:46;24.20;;;6.85;;
49051;SDS011;34866;48.670;18.260;2023-02-23T05:59:16;19.45;;;6.43;;
49051;SDS011;34866;48.670;18.260;2023-02-23T06:01:42;12.10;;;5.82;;
49051;SDS011;34866;48.670;18.260;2023-02-23T06:04:07;18.40;;;7.85;;
49051;SDS011;34866;48.670;18.260;2023-02-23T06:06:33;14.30;;;7.43;;
49051;SDS011;34866;48.670;18.260;2023-02-23T06:08:59;16.40;;;7.10;;
49051;SDS011;34866;48.670;18.260;2023-02-23T06:11:25;17.33;;;6.97;;
49051;SDS011;34866;48.670;18.260;2023-02-23T06:13:52;13.48;;;6.05;;
49051;SDS011;34866;48.670;18.260;2023-02-23T06:16:17;12.98;;;6.47;;
49051;SDS011;34866;48.670;18.260;2023-02-23T06:18:45;15.00;;;6.97;;
49051;SDS011;34866;48.670;18.260;2023-02-23T06:21:11;15.27;;;7.15;;
49051;SDS011;34866;48.670;18.260;2023-02-23T06:23:36;19.63;;;7.65;;
49051;SDS011;34866;48.670;18.260;2023-02-23T06:26:02;14.85;;;6.78;;
49051;SDS011;34866;48.670;18.260;2023-02-23T06:28:28;16.73;;;6.85;;
49051;SDS011;34866;48.670;18.260;2023-02-23T06:30:54;16.30;;;6.68;;
49051;SDS011;34866;48.670;18.260;2023-02-23T06:33:21;22.83;;;8.18;;
49051;SDS011;34866;48.670;18.260;2023-02-23T06:35:47;15.15;;;8.18;;
49051;SDS011;34866;48.670;18.260;2023-02-23T06:38:13;20.50;;;8.13;;
49051;SDS011;34866;48.670;18.260;2023-02-23T06:40:39;20.85;;;9.35;;
49051;SDS011;34866;48.670;18.260;2023-02-23T06:43:05;16.10;;;7.75;;
49051;SDS011;34866;48.670;18.260;2023-02-23T06:45:31;16.73;;;7.65;;
49051;SDS011;34866;48.670;18.260;2023-02-23T06:47:59;18.38;;;8.43;;
49051;SDS011;34866;48.670;18.260;2023-02-23T06:50:26;20.73;;;8.27;;
49051;SDS011;34866;48.670;18.260;2023-02-23T06:52:51;14.38;;;7.65;;
49051;SDS011;34866;48.670;18.260;2023-02-23T06:55:17;17.08;;;7.70;;
49051;SDS011;34866;48.670;18.260;2023-02-23T06:57:43;19.02;;;6.50;;
49051;SDS011;34866;48.670;18.260;2023-02-23T07:00:09;18.63;;;7.75;;
49051;SDS011;34866;48.670;18.260;2023-02-23T07:02:39;20.42;;;7.88;;
49051;SDS011;34866;48.670;18.260;2023-02-23T07:05:06;16.60;;;8.13;;
49051;SDS011;34866;48.670;18.260;2023-02-23T07:07:32;17.83;;;8.20;;
49051;SDS011;34866;48.670;18.260;2023-02-23T07:09:58;20.90;;;7.63;;
49051;SDS011;34866;48.670;18.260;2023-02-23T07:12:23;20.13;;;8.02;;
49051;SDS011;34866;48.670;18.260;2023-02-23T07:14:49;21.65;;;8.15;;
49051;SDS011;34866;48.670;18.260;2023-02-23T07:17:15;22.05;;;9.02;;
49051;SDS011;34866;48.670;18.260;2023-02-23T07:19:41;16.55;;;8.10;;
49051;SDS011;34866;48.670;18.260;2023-02-23T07:22:07;16.48;;;7.90;;
49051;SDS011;34866;48.670;18.260;2023-02-23T07:24:33;16.13;;;8.68;;
49051;SDS011;34866;48.670;18.260;2023-02-23T07:26:58;19.27;;;7.97;;
49051;SDS011;34866;48.670;18.260;2023-02-23T07:29:24;21.15;;;7.25;;
49051;SDS011;34866;48.670;18.260;2023-02-23T07:31:52;16.10;;;7.47;;
49051;SDS011;34866;48.670;18.260;2023-02-23T07:34:17;21.70;;;8.30;;
49051;SDS011;34866;48.670;18.260;2023-02-23T07:36:43;15.82;;;8.52;;
49051;SDS011;34866;48.670;18.260;2023-02-23T07:39:08;22.50;;;9.60;;
49051;SDS011;34866;48.670;18.260;2023-02-23T07:41:34;21.90;;;11.25;;
49051;SDS011;34866;48.670;18.260;2023-02-23T07:44:00;22.23;;;10.07;;
49051;SDS011;34866;48.670;18.260;2023-02-23T07:46:26;23.35;;;10.85;;
49051;SDS011;34866;48.670;18.260;2023-02-23T07:48:51;22.90;;;11.57;;
49051;SDS011;34866;48.670;18.260;2023-02-23T07:51:17;25.55;;;10.60;;
49051;SDS011;34866;48.670;18.260;2023-02-23T07:53:43;23.63;;;11.40;;
49051;SDS011;34866;48.670;18.260;2023-02-23T07:56:09;29.35;;;11.85;;
49051;SDS011;34866;48.670;18.260;2023-02-23T07:58:36;27.33;;;12.07;;
49051;SDS011;34866;48.670;18.260;2023-02-23T08:01:03;27.52;;;10.35;;
49051;SDS011;34866;48.670;18.260;2023-02-23T08:03:29;24.92;;;10.95;;
49051;SDS011;34866;48.670;18.260;2023-02-23T08:05:54;19.75;;;10.30;;
49051;SDS011;34866;48.670;18.260;2023-02-23T08:08:20;26.83;;;10.25;;
49051;SDS011;34866;48.670;18.260;2023-02-23T08:10:46;27.90;;;10.40;;
49051;SDS011;34866;48.670;18.260;2023-02-23T08:13:15;24.20;;;9.55;;
49051;SDS011;34866;48.670;18.260;2023-02-23T08:15:41;21.40;;;8.70;;
49051;SDS011;34866;48.670;18.260;2023-02-23T08:18:07;17.98;;;9.07;;
49051;SDS011;34866;48.670;18.260;2023-02-23T08:20:33;21.98;;;9.60;;
49051;SDS011;34866;48.670;18.260;2023-02-23T08:22:59;29.17;;;11.00;;
49051;SDS011;34866;48.670;18.260;2023-02-23T08:25:25;25.30;;;9.43;;
49051;SDS011;34866;48.670;18.260;2023-02-23T08:27:53;33.45;;;11.60;;
49051;SDS011;34866;48.670;18.260;2023-02-23T08:30:19;31.83;;;13.57;;
49051;SDS011;34866;48.670;18.260;2023-02-23T08:32:46;27.73;;;12.43;;
49051;SDS011;34866;48.670;18.260;2023-02-23T08:35:12;26.67;;;12.13;;
49051;SDS011;34866;48.670;18.260;2023-02-23T08:37:38;24.33;;;10.38;;
49051;SDS011;34866;48.670;18.260;2023-02-23T08:40:06;18.85;;;9.32;;
49051;SDS011;34866;48.670;18.260;2023-02-23T08:42:33;29.63;;;11.07;;
49051;SDS011;34866;48.670;18.260;2023-02-23T08:44:58;19.60;;;9.15;;
49051;SDS011;34866;48.670;18.260;2023-02-23T08:47:25;19.33;;;9.00;;
49051;SDS011;34866;48.670;18.260;2023-02-23T08:49:51;27.63;;;9.25;;
49051;SDS011;34866;48.670;18.260;2023-02-23T08:52:20;20.48;;;8.88;;
49051;SDS011;34866;48.670;18.260;2023-02-23T08:54:46;19.08;;;9.10;;
49051;SDS011;34866;48.670;18.260;2023-02-23T08:57:11;17.20;;;8.18;;
49051;SDS011;34866;48.670;18.260;2023-02-23T08:59:37;21.30;;;9.43;;
49051;SDS011;34866;48.670;18.260;2023-02-23T09:02:05;20.33;;;8.95;;
49051;SDS011;34866;48.670;18.260;2023-02-23T09:04:32;14.65;;;7.97;;
49051;SDS011;34866;48.670;18.260;2023-02-23T09:06:59;18.73;;;8.60;;
49051;SDS011;34866;48.670;18.260;2023-02-23T09:09:25;21.27;;;7.47;;
49051;SDS011;34866;48.670;18.260;2023-02-23T09:11:51;19.42;;;8.85;;
49051;SDS011;34866;48.670;18.260;2023-02-23T09:14:17;24.90;;;12.20;;
49051;SDS011;34866;48.670;18.260;2023-02-23T09:16:43;15.75;;;9.00;;
49051;SDS011;34866;48.670;18.260;2023-02-23T09:19:10;18.80;;;10.38;;
49051;SDS011;34866;48.670;18.260;2023-02-23T09:21:35;23.27;;;11.20;;
49051;SDS011;34866;48.670;18.260;2023-02-23T09:24:01;19.33;;;8.43;;
49051;SDS011;34866;48.670;18.260;2023-02-23T09:26:27;17.58;;;7.85;;
49051;SDS011;34866;48.670;18.260;2023-02-23T09:28:53;14.40;;;7.32;;
49051;SDS011;34866;48.670;18.260;2023-02-23T09:31:21;17.35;;;7.78;;
49051;SDS011;34866;48.670;18.260;2023-02-23T09:33:47;15.23;;;6.65;;
49051;SDS011;34866;48.670;18.260;2023-02-23T09:36:21;25.67;;;7.28;;
49051;SDS011;34866;48.670;18.260;2023-02-23T09:38:49;17.23;;;7.53;;
49051;SDS011;34866;48.670;18.260;2023-02-23T09:46:31;16.93;;;6.20;;
49051;SDS011;34866;48.670;18.260;2023-02-23T09:49:17;10.80;;;4.75;;
49051;SDS011;34866;48.670;18.260;2023-02-23T09:51:48;11.50;;;4.88;;
49051;SDS011;34866;48.670;18.260;2023-02-23T09:54:21;10.60;;;4.75;;
49051;SDS011;34866;48.670;18.260;2023-02-23T09:56:49;10.60;;;5.20;;
49051;SDS011;34866;48.670;18.260;2023-02-23T09:59:19;18.02;;;6.05;;
49051;SDS011;34866;48.670;18.260;2023-02-23T10:16:11;13.38;;;5.03;;
49051;SDS011;34866;48.670;18.260;2023-02-23T10:18:46;17.17;;;5.93;;
49051;SDS011;34866;48.670;18.260;2023-02-23T10:24:10;13.98;;;4.07;;
49051;SDS011;34866;48.670;18.260;2023-02-23T10:26:42;12.45;;;5.00;;
49051;SDS011;34866;48.670;18.260;2023-02-23T10:29:20;11.85;;;4.55;;
49051;SDS011;34866;48.670;18.260;2023-02-23T10:31:55;11.65;;;4.15;;
49051;SDS011;34866;48.670;18.260;2023-02-23T10:34:23;13.35;;;4.15;;
49051;SDS011;34866;48.670;18.260;2023-02-23T10:36:58;10.52;;;3.90;;
49051;SDS011;34866;48.670;18.260;2023-02-23T10:39:28;9.82;;;4.93;;
49051;SDS011;34866;48.670;18.260;2023-02-23T10:41:57;10.80;;;4.40;;
49051;SDS011;34866;48.670;18.260;2023-02-23T10:44:26;15.30;;;4.82;;
49051;SDS011;34866;48.670;18.260;2023-02-23T10:46:54;13.43;;;5.13;;
49051;SDS011;34866;48.670;18.260;2023-02-23T10:49:38;12.45;;;5.07;;
49051;SDS011;34866;48.670;18.260;2023-02-23T10:52:11;13.70;;;4.75;;
49051;SDS011;34866;48.670;18.260;2023-02-23T10:54:45;16.00;;;4.70;;
49051;SDS011;34866;48.670;18.260;2023-02-23T10:57:22;11.60;;;4.60;;
49051;SDS011;34866;48.670;18.260;2023-02-23T11:02:37;11.60;;;4.78;;
49051;SDS011;34866;48.670;18.260;2023-02-23T11:05:05;11.50;;;4.90;;
49051;SDS011;34866;48.670;18.260;2023-02-23T11:07:32;12.18;;;4.50;;
49051;SDS011;34866;48.670;18.260;2023-02-23T11:09:59;16.65;;;5.30;;
49051;SDS011;34866;48.670;18.260;2023-02-23T11:12:50;11.32;;;4.65;;
49051;SDS011;34866;48.670;18.260;2023-02-23T11:15:29;9.77;;;4.60;;
49051;SDS011;34866;48.670;18.260;2023-02-23T11:17:57;15.35;;;4.60;;
49051;SDS011;34866;48.670;18.260;2023-02-23T11:20:34;15.38;;;5.10;;
49051;SDS011;34866;48.670;18.260;2023-02-23T11:25:45;24.77;;;5.45;;
49051;SDS011;34866;48.670;18.260;2023-02-23T11:28:15;11.27;;;4.13;;
49051;SDS011;34866;48.670;18.260;2023-02-23T11:30:46;11.40;;;4.93;;
49051;SDS011;34866;48.670;18.260;2023-02-23T11:33:17;14.35;;;4.57;;
49051;SDS011;34866;48.670;18.260;2023-02-23T11:35:46;12.40;;;5.15;;
49051;SDS011;34866;48.670;18.260;2023-02-23T11:38:15;17.00;;;5.20;;
49051;SDS011;34866;48.670;18.260;2023-02-23T11:40:45;12.98;;;5.82;;
49051;SDS011;34866;48.670;18.260;2023-02-23T11:43:26;16.75;;;7.18;;
49051;SDS011;34866;48.670;18.260;2023-02-23T11:45:56;15.38;;;5.53;;
49051;SDS011;34866;48.670;18.260;2023-02-23T11:48:45;12.35;;;4.70;;
49051;SDS011;34866;48.670;18.260;2023-02-23T11:51:21;15.45;;;4.65;;
49051;SDS011;34866;48.670;18.260;2023-02-23T11:53:49;8.75;;;3.33;;
49051;SDS011;34866;48.670;18.260;2023-02-23T11:56:20;13.98;;;4.35;;
49051;SDS011;34866;48.670;18.260;2023-02-23T11:58:50;9.70;;;3.05;;
49051;SDS011;34866;48.670;18.260;2023-02-23T12:01:20;15.82;;;4.43;;
49051;SDS011;34866;48.670;18.260;2023-02-23T12:03:58;16.42;;;4.13;;
49051;SDS011;34866;48.670;18.260;2023-02-23T12:06:34;14.02;;;5.13;;
49051;SDS011;34866;48.670;18.260;2023-02-23T12:09:24;9.60;;;3.88;;
49051;SDS011;34866;48.670;18.260;2023-02-23T12:11:57;9.77;;;3.20;;
49051;SDS011;34866;48.670;18.260;2023-02-23T12:14:26;8.65;;;3.47;;
49051;SDS011;34866;48.670;18.260;2023-02-23T12:16:58;7.30;;;2.85;;
49051;SDS011;34866;48.670;18.260;2023-02-23T12:19:30;9.70;;;4.28;;
49051;SDS011;34866;48.670;18.260;2023-02-23T12:22:17;10.10;;;3.28;;
49051;SDS011;34866;48.670;18.260;2023-02-23T12:24:51;13.07;;;4.10;;
49051;SDS011;34866;48.670;18.260;2023-02-23T12:27:25;13.60;;;4.80;;
49051;SDS011;34866;48.670;18.260;2023-02-23T12:30:14;11.55;;;3.95;;
49051;SDS011;34866;48.670;18.260;2023-02-23T12:32:50;29.55;;;8.27;;
49051;SDS011;34866;48.670;18.260;2023-02-23T12:40:51;32.08;;;10.77;;
49051;SDS011;34866;48.670;18.260;2023-02-23T12:43:38;31.17;;;10.32;;
49051;SDS011;34866;48.670;18.260;2023-02-23T12:46:25;27.92;;;8.05;;
49051;SDS011;34866;48.670;18.260;2023-02-23T12:49:05;22.33;;;7.63;;
49051;SDS011;34866;48.670;18.260;2023-02-23T12:51:45;22.27;;;7.78;;
49051;SDS011;34866;48.670;18.260;2023-02-23T12:54:23;33.13;;;9.38;;
49051;SDS011;34866;48.670;18.260;2023-02-23T12:59:45;10.63;;;4.32;;
49051;SDS011;34866;48.670;18.260;2023-02-23T13:05:02;21.05;;;5.80;;
49051;SDS011;34866;48.670;18.260;2023-02-23T13:07:54;18.13;;;5.28;;
49051;SDS011;34866;48.670;18.260;2023-02-23T13:10:51;15.95;;;4.55;;
49051;SDS011;34866;48.670;18.260;2023-02-23T13:16:04;11.00;;;3.72;;
49051;SDS011;34866;48.670;18.260;2023-02-23T13:18:42;14.32;;;4.93;;
49051;SDS011;34866;48.670;18.260;2023-02-23T13:29:19;8.65;;;4.10;;
49051;SDS011;34866;48.670;18.260;2023-02-23T13:31:55;12.30;;;3.72;;
49051;SDS011;34866;48.670;18.260;2023-02-23T13:34:25;9.45;;;3.90;;
49051;SDS011;34866;48.670;18.260;2023-02-23T13:36:53;8.55;;;2.83;;
49051;SDS011;34866;48.670;18.260;2023-02-23T13:44:28;12.65;;;4.15;;
49051;SDS011;34866;48.670;18.260;2023-02-23T13:49:51;9.23;;;3.42;;
49051;SDS011;34866;48.670;18.260;2023-02-23T13:55:00;11.25;;;4.28;;
49051;SDS011;34866;48.670;18.260;2023-02-23T13:57:29;7.93;;;3.58;;
49051;SDS011;34866;48.670;18.260;2023-02-23T13:59:56;8.90;;;2.97;;
49051;SDS011;34866;48.670;18.260;2023-02-23T14:05:41;12.50;;;4.25;;
49051;SDS011;34866;48.670;18.260;2023-02-23T14:07:52;13.93;;;4.07;;
49051;SDS011;34866;48.670;18.260;2023-02-23T14:10:27;8.02;;;3.20;;
49051;SDS011;34866;48.670;18.260;2023-02-23T14:15:43;9.68;;;3.78;;
49051;SDS011;34866;48.670;18.260;2023-02-23T14:20:43;12.13;;;3.42;;
49051;SDS011;34866;48.670;18.260;2023-02-23T14:25:45;11.18;;;4.20;;
49051;SDS011;34866;48.670;18.260;2023-02-23T14:28:34;11.68;;;4.97;;
49051;SDS011;34866;48.670;18.260;2023-02-23T14:47:20;8.70;;;4.00;;
49051;SDS011;34866;48.670;18.260;2023-02-23T14:49:57;11.80;;;3.30;;
49051;SDS011;34866;48.670;18.260;2023-02-23T14:52:29;12.40;;;5.03;;
49051;SDS011;34866;48.670;18.260;2023-02-23T14:57:38;9.02;;;4.13;;
49051;SDS011;34866;48.670;18.260;2023-02-23T15:00:27;12.75;;;4.85;;
49051;SDS011;34866;48.670;18.260;2023-02-23T15:02:53;10.60;;;4.65;;
49051;SDS011;34866;48.670;18.260;2023-02-23T15:05:33;13.32;;;5.80;;
49051;SDS011;34866;48.670;18.260;2023-02-23T15:08:05;12.48;;;4.22;;
49051;SDS011;34866;48.670;18.260;2023-02-23T15:10:35;20.30;;;4.88;;
49051;SDS011;34866;48.670;18.260;2023-02-23T15:13:26;16.20;;;6.45;;
49051;SDS011;34866;48.670;18.260;2023-02-23T15:18:56;12.63;;;4.50;;
49051;SDS011;34866;48.670;18.260;2023-02-23T15:21:23;12.07;;;5.05;;
49051;SDS011;34866;48.670;18.260;2023-02-23T15:23:50;13.10;;;5.00;;
49051;SDS011;34866;48.670;18.260;2023-02-23T15:26:26;15.48;;;4.82;;
49051;SDS011;34866;48.670;18.260;2023-02-23T15:29:01;13.00;;;4.97;;
49051;SDS011;34866;48.670;18.260;2023-02-23T15:31:48;9.82;;;4.25;;
49051;SDS011;34866;48.670;18.260;2023-02-23T15:34:25;15.50;;;5.15;;
49051;SDS011;34866;48.670;18.260;2023-02-23T15:42:11;11.93;;;4.43;;
49051;SDS011;34866;48.670;18.260;2023-02-23T15:44:41;14.60;;;5.80;;
49051;SDS011;34866;48.670;18.260;2023-02-23T15:47:09;12.88;;;5.57;;
49051;SDS011;34866;48.670;18.260;2023-02-23T15:49:44;20.45;;;4.65;;
49051;SDS011;34866;48.670;18.260;2023-02-23T15:52:14;11.65;;;5.18;;
49051;SDS011;34866;48.670;18.260;2023-02-23T16:00:27;12.25;;;4.90;;
49051;SDS011;34866;48.670;18.260;2023-02-23T16:03:00;10.63;;;5.25;;
49051;SDS011;34866;48.670;18.260;2023-02-23T16:05:29;12.27;;;4.97;;
49051;SDS011;34866;48.670;18.260;2023-02-23T16:08:04;12.57;;;5.35;;
49051;SDS011;34866;48.670;18.260;2023-02-23T16:10:42;14.02;;;5.70;;
49051;SDS011;34866;48.670;18.260;2023-02-23T16:13:11;13.48;;;6.03;;
49051;SDS011;34866;48.670;18.260;2023-02-23T16:15:39;10.25;;;4.80;;
49051;SDS011;34866;48.670;18.260;2023-02-23T16:18:16;12.85;;;5.63;;
49051;SDS011;34866;48.670;18.260;2023-02-23T16:20:51;12.95;;;5.57;;
49051;SDS011;34866;48.670;18.260;2023-02-23T16:26:14;12.90;;;5.35;;
49051;SDS011;34866;48.670;18.260;2023-02-23T16:28:44;14.38;;;5.78;;
49051;SDS011;34866;48.670;18.260;2023-02-23T16:31:11;9.45;;;5.13;;
49051;SDS011;34866;48.670;18.260;2023-02-23T16:33:54;14.13;;;5.22;;
49051;SDS011;34866;48.670;18.260;2023-02-23T16:36:23;15.25;;;5.97;;
49051;SDS011;34866;48.670;18.260;2023-02-23T16:39:03;13.48;;;5.60;;
49051;SDS011;34866;48.670;18.260;2023-02-23T16:41:35;15.13;;;5.53;;
49051;SDS011;34866;48.670;18.260;2023-02-23T16:44:01;13.95;;;5.63;;
49051;SDS011;34866;48.670;18.260;2023-02-23T16:46:31;16.67;;;5.95;;
49051;SDS011;34866;48.670;18.260;2023-02-23T16:49:17;12.60;;;5.20;;
49051;SDS011;34866;48.670;18.260;2023-02-23T16:51:43;11.90;;;4.93;;
49051;SDS011;34866;48.670;18.260;2023-02-23T16:54:09;12.90;;;5.35;;
49051;SDS011;34866;48.670;18.260;2023-02-23T16:56:36;14.05;;;4.55;;
49051;SDS011;34866;48.670;18.260;2023-02-23T16:59:04;11.02;;;4.78;;
49051;SDS011;34866;48.670;18.260;2023-02-23T17:01:34;12.55;;;4.47;;
49051;SDS011;34866;48.670;18.260;2023-02-23T17:04:01;17.63;;;4.32;;
49051;SDS011;34866;48.670;18.260;2023-02-23T17:06:27;10.82;;;4.78;;
49051;SDS011;34866;48.670;18.260;2023-02-23T17:08:53;13.02;;;4.70;;